Scroll down
FLIGHT INFORMATION
PMDG Flight Operations

PFO1

At Arrival Gate

KOSH
 CYYT
DATE: 2020-08-07
GATE:  -
GATE DEPARTURE: 12:15
TAKEOFF: 12:24
DATE: 2020-08-07
GATE:  -
LANDING: 15:39
GATE ARRIVAL: 15:49
FLIGHT DATA
Crew: 
Speed: 
467 kts
Altitude: 
41,021 ft
Stage Length: 
1,500.7 nm
Block Time: 
3.6 hrs
Flight Time: 
3.3 hrs
Fuel Used: 
16,602 lb
Cleared Route: KOSH OSH GRB ASP MIILS YGR MIVAD PESDO PIGTA GAURA DUTOV GAURA RW29
TRACK DATA
50,000 ft 1,000 kts
AIRCRAFT INFO AND CUMULATIVE STATS
Aircraft Type: 
B739ERSSW
Registration: 
SELCAL: 
MSN/LN: 
0 / 1
Total Flights: 
11
Total Block Time: 
40 hrs
Total Flight Time: 
38.2 hrs
Total Fuel Used: 
179,702 lb
DATALINK LOG | Newest first | Current as of: 2022-09-30 03:15:35
LABEL SEQUENCE CONTENT Dn/Up
QD463615:49 7.2▼ Dn
QC372815:39▼ Dn
2U2348CYYT 070800Z 27009KT 15SM FEW015 FEW180 BKN220 16/15 A2987 RMK SC1AC2CI2 SLP117 DENSITY ALT 700FT▲ Up
2S2016CYYT▼ Dn
2U5521CYYT 070700Z 25012KT 15SM BKN220 16/15 A2986 RMK CI5 SLP114 DENSITY ALT 800FT▲ Up
2S5250CYYT▼ Dn
2U0901CYYT 070516Z 28011KT 15SM FEW055 17/16 A2987 RMK SC3 SLP116 DENSITY ALT 900FT▲ Up
2S0608CYYT▼ Dn
QB212512:24▼ Dn
QA121712:15 23.8▼ Dn
Q04958[LINK ACK]▲ Up
Q04958[LINK TEST]▼ Dn


AIRCRAFT HISTORY
FLIGHT DATE FLIGHT NO. ORIGIN DESTINATION CLEARED ROUTE BLOCK TIME FLIGHT TIME FUEL USED PILOT
2020-12-19PFO2201SCEL SABE SCEL VAGOS EL250 EL401 ALBAL KOTNI BOBAP ETALU ISELU SINAL IREXA EDNAP ESNIM LOGAM PABAS ASADA SABE1.8 hrs1.5 hrs9,817 lbRoberto Stopnicki
2020-10-22PFO0001SKBO SCEL SKBO POVSO ROLUS IQT OSORA TEMOR LITUP ILNAM ETEBA LOMOL TOMIX OPKUL OGMAS EVLAR ISLOD ARI PUGOT IQQ REBOL FAG VADIX NENAT REBEP MORMI OGROS NIRNU ISGUD SIMOK SCEL5.1 hrs5 hrs24,977 lbAlex K.
2020-10-22PFO0001MMUN SKBO MMUN TAKUX OMIRO BONOS PELRA SPP SEKMA PML ARORO VASIL ABL SKBO3.1 hrs3 hrs15,240 lbAlex K.
2020-10-21PFO0001MZBZ MMUN 0.8 hrs0.7 hrs5,540 lbAlex K.
2020-10-21PFO0001TNCM MZBZ 3.5 hrs3.4 hrs20,057 lbAlex K.
2020-10-21PFO0001KBFI TNCM 11.9 hrs11.8 hrs34,064 lbAlex K.
2020-10-20PFO0001CYQD KBFI CYQD QD PIKLA KANEE LOSTT KBFI2.5 hrs2.4 hrs11,850 lbAlex K.
2020-10-17PFO1CYYT CYQD CYYT MUSAK BOBBS YFM YPO YNE REFEX KANEE DASBI LOSTT KBFI4.4 hrs4.3 hrs23,009 lbAlex K.
2020-08-07PFO1KOSH CYYT KOSH OSH GRB ASP MIILS YGR MIVAD PESDO PIGTA GAURA DUTOV GAURA RW293.6 hrs3.3 hrs16,602 lbSTEFAN DORDEVIC
2020-07-20PFO720CYYZ KOSH CYYZ TETAD URSAL BESID NOSIK ZOHAN OSH CFBSM RW361.3 hrs1.2 hrs7,998 lbKyle Weber
2020-03-05PFO304KMSP CYYZ 1.8 hrs1.5 hrs10,547 lbBig Swede